sensor_id;sensor_type;location;lat;lon;timestamp;P1;durP1;ratioP1;P2;durP2;ratioP2
67130;SDS011;54051;53.464;49.532;2023-06-14T00:01:53;4.85;;;2.20;;
67130;SDS011;54051;53.464;49.532;2023-06-14T00:04:19;4.65;;;2.30;;
67130;SDS011;54051;53.464;49.532;2023-06-14T00:09:12;5.07;;;2.10;;
67130;SDS011;54051;53.464;49.532;2023-06-14T00:11:41;5.57;;;2.30;;
67130;SDS011;54051;53.464;49.532;2023-06-14T00:14:08;5.78;;;2.20;;
67130;SDS011;54051;53.464;49.532;2023-06-14T00:16:34;5.27;;;2.23;;
67130;SDS011;54051;53.464;49.532;2023-06-14T00:19:03;4.75;;;2.15;;
67130;SDS011;54051;53.464;49.532;2023-06-14T00:21:30;4.35;;;2.13;;
67130;SDS011;54051;53.464;49.532;2023-06-14T00:23:57;4.68;;;2.20;;
67130;SDS011;54051;53.464;49.532;2023-06-14T00:26:23;5.35;;;2.15;;
67130;SDS011;54051;53.464;49.532;2023-06-14T00:28:51;8.23;;;2.25;;
67130;SDS011;54051;53.464;49.532;2023-06-14T00:31:18;6.00;;;2.30;;
67130;SDS011;54051;53.464;49.532;2023-06-14T00:33:44;5.15;;;2.20;;
67130;SDS011;54051;53.464;49.532;2023-06-14T00:36:10;7.72;;;2.30;;
67130;SDS011;54051;53.464;49.532;2023-06-14T00:38:36;5.77;;;2.50;;
67130;SDS011;54051;53.464;49.532;2023-06-14T00:41:02;5.07;;;2.20;;
67130;SDS011;54051;53.464;49.532;2023-06-14T00:43:28;4.82;;;2.10;;
67130;SDS011;54051;53.464;49.532;2023-06-14T00:45:55;5.10;;;2.20;;
67130;SDS011;54051;53.464;49.532;2023-06-14T00:48:21;4.70;;;2.30;;
67130;SDS011;54051;53.464;49.532;2023-06-14T00:53:15;6.25;;;2.40;;
67130;SDS011;54051;53.464;49.532;2023-06-14T00:55:43;6.85;;;2.33;;
67130;SDS011;54051;53.464;49.532;2023-06-14T00:58:09;4.88;;;2.33;;
67130;SDS011;54051;53.464;49.532;2023-06-14T01:00:36;6.43;;;2.28;;
67130;SDS011;54051;53.464;49.532;2023-06-14T01:03:02;5.30;;;2.38;;
67130;SDS011;54051;53.464;49.532;2023-06-14T01:05:29;5.13;;;2.30;;
67130;SDS011;54051;53.464;49.532;2023-06-14T01:10:52;5.90;;;2.08;;
67130;SDS011;54051;53.464;49.532;2023-06-14T01:13:33;4.85;;;2.38;;
67130;SDS011;54051;53.464;49.532;2023-06-14T01:16:01;6.35;;;2.60;;
67130;SDS011;54051;53.464;49.532;2023-06-14T01:18:28;5.95;;;2.30;;
67130;SDS011;54051;53.464;49.532;2023-06-14T01:20:55;5.88;;;2.47;;
67130;SDS011;54051;53.464;49.532;2023-06-14T01:23:22;4.65;;;2.35;;
67130;SDS011;54051;53.464;49.532;2023-06-14T01:25:49;4.68;;;2.17;;
67130;SDS011;54051;53.464;49.532;2023-06-14T01:28:18;5.13;;;2.58;;
67130;SDS011;54051;53.464;49.532;2023-06-14T01:30:48;5.72;;;2.65;;
67130;SDS011;54051;53.464;49.532;2023-06-14T01:33:22;5.80;;;2.30;;
67130;SDS011;54051;53.464;49.532;2023-06-14T01:35:52;5.30;;;2.40;;
67130;SDS011;54051;53.464;49.532;2023-06-14T01:38:23;7.82;;;2.60;;
67130;SDS011;54051;53.464;49.532;2023-06-14T01:40:50;5.63;;;2.45;;
67130;SDS011;54051;53.464;49.532;2023-06-14T01:43:18;5.63;;;2.45;;
67130;SDS011;54051;53.464;49.532;2023-06-14T01:48:12;5.15;;;2.28;;
67130;SDS011;54051;53.464;49.532;2023-06-14T01:50:39;6.07;;;2.85;;
67130;SDS011;54051;53.464;49.532;2023-06-14T01:53:08;5.17;;;2.43;;
67130;SDS011;54051;53.464;49.532;2023-06-14T01:55:34;5.13;;;2.45;;
67130;SDS011;54051;53.464;49.532;2023-06-14T01:58:03;5.40;;;2.60;;
67130;SDS011;54051;53.464;49.532;2023-06-14T02:00:30;6.03;;;2.40;;
67130;SDS011;54051;53.464;49.532;2023-06-14T02:02:56;5.40;;;2.40;;
67130;SDS011;54051;53.464;49.532;2023-06-14T02:05:22;5.22;;;2.47;;
67130;SDS011;54051;53.464;49.532;2023-06-14T02:07:49;6.80;;;2.53;;
67130;SDS011;54051;53.464;49.532;2023-06-14T02:10:17;4.70;;;2.30;;
67130;SDS011;54051;53.464;49.532;2023-06-14T02:12:44;6.45;;;2.45;;
67130;SDS011;54051;53.464;49.532;2023-06-14T02:15:10;5.38;;;2.60;;
67130;SDS011;54051;53.464;49.532;2023-06-14T02:17:42;8.25;;;2.55;;
67130;SDS011;54051;53.464;49.532;2023-06-14T02:20:12;6.65;;;2.60;;
67130;SDS011;54051;53.464;49.532;2023-06-14T02:22:39;5.40;;;2.40;;
67130;SDS011;54051;53.464;49.532;2023-06-14T02:25:05;6.72;;;2.35;;
67130;SDS011;54051;53.464;49.532;2023-06-14T02:29:58;7.03;;;2.63;;
67130;SDS011;54051;53.464;49.532;2023-06-14T02:32:24;5.43;;;2.45;;
67130;SDS011;54051;53.464;49.532;2023-06-14T02:34:50;5.40;;;2.60;;
67130;SDS011;54051;53.464;49.532;2023-06-14T02:37:16;6.40;;;2.60;;
67130;SDS011;54051;53.464;49.532;2023-06-14T02:39:42;5.03;;;2.67;;
67130;SDS011;54051;53.464;49.532;2023-06-14T02:42:08;5.80;;;2.42;;
67130;SDS011;54051;53.464;49.532;2023-06-14T02:44:34;5.28;;;2.70;;
67130;SDS011;54051;53.464;49.532;2023-06-14T02:47:00;6.60;;;2.80;;
67130;SDS011;54051;53.464;49.532;2023-06-14T02:49:26;5.10;;;2.55;;
67130;SDS011;54051;53.464;49.532;2023-06-14T02:51:52;5.87;;;2.73;;
67130;SDS011;54051;53.464;49.532;2023-06-14T02:54:18;5.78;;;2.60;;
67130;SDS011;54051;53.464;49.532;2023-06-14T02:56:44;8.02;;;2.53;;
67130;SDS011;54051;53.464;49.532;2023-06-14T02:59:11;6.27;;;2.60;;
67130;SDS011;54051;53.464;49.532;2023-06-14T03:01:39;6.40;;;2.80;;
67130;SDS011;54051;53.464;49.532;2023-06-14T03:04:09;4.85;;;2.20;;
67130;SDS011;54051;53.464;49.532;2023-06-14T03:06:35;7.07;;;2.70;;
67130;SDS011;54051;53.464;49.532;2023-06-14T03:09:02;5.35;;;2.47;;
67130;SDS011;54051;53.464;49.532;2023-06-14T03:11:34;6.22;;;2.38;;
67130;SDS011;54051;53.464;49.532;2023-06-14T03:14:01;5.63;;;2.45;;
67130;SDS011;54051;53.464;49.532;2023-06-14T03:16:29;7.55;;;2.50;;
67130;SDS011;54051;53.464;49.532;2023-06-14T03:18:57;6.35;;;2.50;;
67130;SDS011;54051;53.464;49.532;2023-06-14T03:21:23;6.75;;;2.50;;
67130;SDS011;54051;53.464;49.532;2023-06-14T03:23:49;8.17;;;2.70;;
67130;SDS011;54051;53.464;49.532;2023-06-14T03:26:15;7.07;;;2.50;;
67130;SDS011;54051;53.464;49.532;2023-06-14T03:28:46;6.38;;;2.75;;
67130;SDS011;54051;53.464;49.532;2023-06-14T03:31:13;5.53;;;2.33;;
67130;SDS011;54051;53.464;49.532;2023-06-14T03:33:40;6.95;;;2.80;;
67130;SDS011;54051;53.464;49.532;2023-06-14T03:36:06;8.35;;;2.70;;
67130;SDS011;54051;53.464;49.532;2023-06-14T03:38:32;6.13;;;2.50;;
67130;SDS011;54051;53.464;49.532;2023-06-14T03:40:58;6.50;;;2.88;;
67130;SDS011;54051;53.464;49.532;2023-06-14T03:43:24;7.10;;;2.67;;
67130;SDS011;54051;53.464;49.532;2023-06-14T03:45:51;9.20;;;2.83;;
67130;SDS011;54051;53.464;49.532;2023-06-14T03:48:17;7.78;;;2.72;;
67130;SDS011;54051;53.464;49.532;2023-06-14T03:50:43;6.88;;;2.78;;
67130;SDS011;54051;53.464;49.532;2023-06-14T03:55:36;6.22;;;2.60;;
67130;SDS011;54051;53.464;49.532;2023-06-14T03:58:03;5.47;;;2.50;;
67130;SDS011;54051;53.464;49.532;2023-06-14T04:00:29;5.60;;;2.83;;
67130;SDS011;54051;53.464;49.532;2023-06-14T04:02:55;6.37;;;2.77;;
67130;SDS011;54051;53.464;49.532;2023-06-14T04:05:21;7.60;;;3.00;;
67130;SDS011;54051;53.464;49.532;2023-06-14T04:10:16;7.47;;;2.85;;
67130;SDS011;54051;53.464;49.532;2023-06-14T04:12:43;6.32;;;3.15;;
67130;SDS011;54051;53.464;49.532;2023-06-14T04:15:09;6.32;;;3.15;;
67130;SDS011;54051;53.464;49.532;2023-06-14T04:17:36;5.47;;;3.00;;
67130;SDS011;54051;53.464;49.532;2023-06-14T04:22:30;5.55;;;2.80;;
67130;SDS011;54051;53.464;49.532;2023-06-14T04:24:57;7.87;;;3.17;;
67130;SDS011;54051;53.464;49.532;2023-06-14T04:27:23;7.53;;;3.47;;
67130;SDS011;54051;53.464;49.532;2023-06-14T04:29:51;6.47;;;3.45;;
67130;SDS011;54051;53.464;49.532;2023-06-14T04:32:28;6.95;;;3.33;;
67130;SDS011;54051;53.464;49.532;2023-06-14T04:34:59;8.82;;;3.50;;
67130;SDS011;54051;53.464;49.532;2023-06-14T04:37:29;8.23;;;3.55;;
67130;SDS011;54051;53.464;49.532;2023-06-14T04:39:55;6.57;;;3.50;;
67130;SDS011;54051;53.464;49.532;2023-06-14T04:42:22;7.00;;;3.42;;
67130;SDS011;54051;53.464;49.532;2023-06-14T04:44:50;6.05;;;3.30;;
67130;SDS011;54051;53.464;49.532;2023-06-14T04:47:21;7.95;;;3.45;;
67130;SDS011;54051;53.464;49.532;2023-06-14T04:49:47;7.97;;;3.10;;
67130;SDS011;54051;53.464;49.532;2023-06-14T04:52:13;6.73;;;3.27;;
67130;SDS011;54051;53.464;49.532;2023-06-14T04:54:40;9.38;;;3.90;;
67130;SDS011;54051;53.464;49.532;2023-06-14T04:57:07;7.28;;;3.22;;
67130;SDS011;54051;53.464;49.532;2023-06-14T04:59:34;7.13;;;3.30;;
67130;SDS011;54051;53.464;49.532;2023-06-14T05:02:00;6.18;;;3.50;;
67130;SDS011;54051;53.464;49.532;2023-06-14T05:04:27;8.15;;;3.50;;
67130;SDS011;54051;53.464;49.532;2023-06-14T05:06:53;7.70;;;3.53;;
67130;SDS011;54051;53.464;49.532;2023-06-14T05:09:22;7.32;;;3.10;;
67130;SDS011;54051;53.464;49.532;2023-06-14T05:11:49;6.95;;;3.63;;
67130;SDS011;54051;53.464;49.532;2023-06-14T05:14:15;6.95;;;3.25;;
67130;SDS011;54051;53.464;49.532;2023-06-14T05:16:42;7.68;;;3.65;;
67130;SDS011;54051;53.464;49.532;2023-06-14T05:19:09;7.13;;;3.65;;
67130;SDS011;54051;53.464;49.532;2023-06-14T05:21:36;8.55;;;3.97;;
67130;SDS011;54051;53.464;49.532;2023-06-14T05:26:28;8.43;;;3.45;;
67130;SDS011;54051;53.464;49.532;2023-06-14T05:28:54;6.93;;;3.27;;
67130;SDS011;54051;53.464;49.532;2023-06-14T05:31:40;6.82;;;3.80;;
67130;SDS011;54051;53.464;49.532;2023-06-14T05:34:06;9.48;;;3.75;;
67130;SDS011;54051;53.464;49.532;2023-06-14T05:36:32;9.80;;;4.10;;
67130;SDS011;54051;53.464;49.532;2023-06-14T05:38:58;8.80;;;3.33;;
67130;SDS011;54051;53.464;49.532;2023-06-14T05:41:26;6.20;;;3.60;;
67130;SDS011;54051;53.464;49.532;2023-06-14T05:43:53;7.25;;;3.33;;
67130;SDS011;54051;53.464;49.532;2023-06-14T05:46:20;7.68;;;3.65;;
67130;SDS011;54051;53.464;49.532;2023-06-14T05:48:51;8.88;;;4.20;;
67130;SDS011;54051;53.464;49.532;2023-06-14T05:51:17;9.15;;;4.50;;
67130;SDS011;54051;53.464;49.532;2023-06-14T05:53:46;9.40;;;4.20;;
67130;SDS011;54051;53.464;49.532;2023-06-14T05:56:13;7.20;;;4.07;;
67130;SDS011;54051;53.464;49.532;2023-06-14T05:58:39;5.78;;;3.45;;
67130;SDS011;54051;53.464;49.532;2023-06-14T06:01:06;8.15;;;3.60;;
67130;SDS011;54051;53.464;49.532;2023-06-14T06:03:32;6.53;;;3.58;;
67130;SDS011;54051;53.464;49.532;2023-06-14T06:05:58;9.65;;;3.70;;
67130;SDS011;54051;53.464;49.532;2023-06-14T06:08:25;6.72;;;3.60;;
67130;SDS011;54051;53.464;49.532;2023-06-14T06:10:52;8.07;;;3.88;;
67130;SDS011;54051;53.464;49.532;2023-06-14T06:13:19;10.13;;;4.03;;
67130;SDS011;54051;53.464;49.532;2023-06-14T06:15:45;6.95;;;3.83;;
67130;SDS011;54051;53.464;49.532;2023-06-14T06:18:11;7.38;;;4.28;;
67130;SDS011;54051;53.464;49.532;2023-06-14T06:20:37;8.47;;;3.60;;
67130;SDS011;54051;53.464;49.532;2023-06-14T06:23:03;8.23;;;3.73;;
67130;SDS011;54051;53.464;49.532;2023-06-14T06:25:29;8.27;;;3.80;;
67130;SDS011;54051;53.464;49.532;2023-06-14T06:27:57;7.65;;;3.70;;
67130;SDS011;54051;53.464;49.532;2023-06-14T06:30:23;8.75;;;3.30;;
67130;SDS011;54051;53.464;49.532;2023-06-14T06:32:50;7.50;;;3.30;;
67130;SDS011;54051;53.464;49.532;2023-06-14T06:35:17;6.97;;;3.75;;
67130;SDS011;54051;53.464;49.532;2023-06-14T06:37:43;7.93;;;3.75;;
67130;SDS011;54051;53.464;49.532;2023-06-14T06:40:09;9.35;;;3.35;;
67130;SDS011;54051;53.464;49.532;2023-06-14T06:42:35;7.20;;;3.30;;
67130;SDS011;54051;53.464;49.532;2023-06-14T06:45:02;7.78;;;3.30;;
67130;SDS011;54051;53.464;49.532;2023-06-14T06:47:28;9.05;;;3.30;;
67130;SDS011;54051;53.464;49.532;2023-06-14T06:49:54;8.68;;;3.30;;
67130;SDS011;54051;53.464;49.532;2023-06-14T06:52:20;11.43;;;3.60;;
67130;SDS011;54051;53.464;49.532;2023-06-14T06:54:46;9.77;;;3.90;;
67130;SDS011;54051;53.464;49.532;2023-06-14T06:57:12;8.63;;;3.67;;
67130;SDS011;54051;53.464;49.532;2023-06-14T06:59:38;7.05;;;3.50;;
67130;SDS011;54051;53.464;49.532;2023-06-14T07:02:04;8.80;;;3.53;;
67130;SDS011;54051;53.464;49.532;2023-06-14T07:04:31;8.75;;;3.45;;
67130;SDS011;54051;53.464;49.532;2023-06-14T07:06:57;8.38;;;3.25;;
67130;SDS011;54051;53.464;49.532;2023-06-14T07:09:23;10.77;;;3.33;;
67130;SDS011;54051;53.464;49.532;2023-06-14T07:14:16;7.43;;;3.03;;
67130;SDS011;54051;53.464;49.532;2023-06-14T07:16:42;7.40;;;3.00;;
67130;SDS011;54051;53.464;49.532;2023-06-14T07:19:08;7.30;;;3.20;;
67130;SDS011;54051;53.464;49.532;2023-06-14T07:21:35;8.40;;;3.38;;
67130;SDS011;54051;53.464;49.532;2023-06-14T07:24:07;8.95;;;3.47;;
67130;SDS011;54051;53.464;49.532;2023-06-14T07:26:33;12.35;;;3.40;;
67130;SDS011;54051;53.464;49.532;2023-06-14T07:29:01;8.07;;;3.08;;
67130;SDS011;54051;53.464;49.532;2023-06-14T07:31:27;7.90;;;3.13;;
67130;SDS011;54051;53.464;49.532;2023-06-14T07:33:53;8.30;;;3.35;;
67130;SDS011;54051;53.464;49.532;2023-06-14T07:36:19;10.77;;;3.20;;
67130;SDS011;54051;53.464;49.532;2023-06-14T07:38:46;10.25;;;3.30;;
67130;SDS011;54051;53.464;49.532;2023-06-14T07:41:12;9.63;;;3.17;;
67130;SDS011;54051;53.464;49.532;2023-06-14T07:43:38;6.73;;;2.80;;
67130;SDS011;54051;53.464;49.532;2023-06-14T07:46:06;10.43;;;2.95;;
67130;SDS011;54051;53.464;49.532;2023-06-14T07:48:33;7.20;;;3.08;;
67130;SDS011;54051;53.464;49.532;2023-06-14T07:51:00;6.32;;;2.88;;
67130;SDS011;54051;53.464;49.532;2023-06-14T07:53:26;8.63;;;3.13;;
67130;SDS011;54051;53.464;49.532;2023-06-14T07:55:52;7.17;;;2.80;;
67130;SDS011;54051;53.464;49.532;2023-06-14T07:58:18;6.63;;;3.00;;
67130;SDS011;54051;53.464;49.532;2023-06-14T08:00:44;6.13;;;2.88;;
67130;SDS011;54051;53.464;49.532;2023-06-14T08:03:11;8.15;;;2.85;;
67130;SDS011;54051;53.464;49.532;2023-06-14T08:05:37;8.00;;;2.80;;
67130;SDS011;54051;53.464;49.532;2023-06-14T08:08:03;7.93;;;3.30;;
67130;SDS011;54051;53.464;49.532;2023-06-14T08:10:29;6.80;;;2.83;;
67130;SDS011;54051;53.464;49.532;2023-06-14T08:12:58;8.00;;;2.95;;
67130;SDS011;54051;53.464;49.532;2023-06-14T08:15:24;7.63;;;2.88;;
67130;SDS011;54051;53.464;49.532;2023-06-14T08:17:50;7.72;;;3.22;;
67130;SDS011;54051;53.464;49.532;2023-06-14T08:20:16;7.82;;;3.22;;
67130;SDS011;54051;53.464;49.532;2023-06-14T08:22:42;6.65;;;2.80;;
67130;SDS011;54051;53.464;49.532;2023-06-14T08:25:09;8.70;;;3.30;;
67130;SDS011;54051;53.464;49.532;2023-06-14T08:27:37;7.07;;;3.20;;
67130;SDS011;54051;53.464;49.532;2023-06-14T08:30:03;8.07;;;3.50;;
67130;SDS011;54051;53.464;49.532;2023-06-14T08:32:30;6.32;;;3.08;;
67130;SDS011;54051;53.464;49.532;2023-06-14T08:34:56;8.30;;;3.20;;
67130;SDS011;54051;53.464;49.532;2023-06-14T08:37:22;6.20;;;2.95;;
67130;SDS011;54051;53.464;49.532;2023-06-14T08:39:48;5.63;;;3.00;;
67130;SDS011;54051;53.464;49.532;2023-06-14T08:42:14;5.45;;;3.00;;
67130;SDS011;54051;53.464;49.532;2023-06-14T08:44:40;7.70;;;3.03;;
67130;SDS011;54051;53.464;49.532;2023-06-14T08:47:07;7.00;;;3.10;;
67130;SDS011;54051;53.464;49.532;2023-06-14T08:49:35;7.93;;;3.22;;
67130;SDS011;54051;53.464;49.532;2023-06-14T08:52:03;6.90;;;3.20;;
67130;SDS011;54051;53.464;49.532;2023-06-14T08:54:33;7.03;;;3.10;;
67130;SDS011;54051;53.464;49.532;2023-06-14T08:57:02;6.63;;;3.20;;
67130;SDS011;54051;53.464;49.532;2023-06-14T08:59:32;7.93;;;3.53;;
67130;SDS011;54051;53.464;49.532;2023-06-14T09:02:05;12.57;;;3.28;;
67130;SDS011;54051;53.464;49.532;2023-06-14T09:04:32;7.75;;;3.05;;
67130;SDS011;54051;53.464;49.532;2023-06-14T09:06:59;6.13;;;3.00;;
67130;SDS011;54051;53.464;49.532;2023-06-14T09:09:24;8.10;;;3.30;;
67130;SDS011;54051;53.464;49.532;2023-06-14T09:11:54;6.72;;;2.88;;
67130;SDS011;54051;53.464;49.532;2023-06-14T09:16:52;7.50;;;3.10;;
67130;SDS011;54051;53.464;49.532;2023-06-14T09:19:21;7.03;;;3.30;;
67130;SDS011;54051;53.464;49.532;2023-06-14T09:21:49;6.57;;;3.03;;
67130;SDS011;54051;53.464;49.532;2023-06-14T09:24:17;6.72;;;3.40;;
67130;SDS011;54051;53.464;49.532;2023-06-14T09:26:43;8.82;;;3.58;;
67130;SDS011;54051;53.464;49.532;2023-06-14T09:29:12;7.80;;;3.40;;
67130;SDS011;54051;53.464;49.532;2023-06-14T09:31:38;6.18;;;3.55;;
67130;SDS011;54051;53.464;49.532;2023-06-14T09:34:04;9.02;;;3.53;;
67130;SDS011;54051;53.464;49.532;2023-06-14T09:36:31;9.40;;;3.53;;
67130;SDS011;54051;53.464;49.532;2023-06-14T09:38:58;7.65;;;3.63;;
67130;SDS011;54051;53.464;49.532;2023-06-14T09:41:32;7.22;;;3.03;;
67130;SDS011;54051;53.464;49.532;2023-06-14T09:44:06;6.85;;;2.78;;
67130;SDS011;54051;53.464;49.532;2023-06-14T09:46:34;6.18;;;2.70;;
67130;SDS011;54051;53.464;49.532;2023-06-14T09:49:02;5.78;;;2.72;;
67130;SDS011;54051;53.464;49.532;2023-06-14T09:51:30;7.07;;;2.50;;
67130;SDS011;54051;53.464;49.532;2023-06-14T09:56:33;6.80;;;3.00;;
67130;SDS011;54051;53.464;49.532;2023-06-14T09:59:03;6.25;;;2.80;;
67130;SDS011;54051;53.464;49.532;2023-06-14T10:01:32;6.05;;;3.03;;
67130;SDS011;54051;53.464;49.532;2023-06-14T10:04:05;7.53;;;3.40;;
67130;SDS011;54051;53.464;49.532;2023-06-14T10:06:37;7.00;;;3.58;;
67130;SDS011;54051;53.464;49.532;2023-06-14T10:09:07;11.20;;;3.60;;
67130;SDS011;54051;53.464;49.532;2023-06-14T10:11:35;6.32;;;3.00;;
67130;SDS011;54051;53.464;49.532;2023-06-14T10:14:04;8.32;;;2.90;;
67130;SDS011;54051;53.464;49.532;2023-06-14T10:19:03;7.03;;;3.20;;
67130;SDS011;54051;53.464;49.532;2023-06-14T10:24:35;8.70;;;3.45;;
67130;SDS011;54051;53.464;49.532;2023-06-14T10:27:07;7.85;;;3.50;;
67130;SDS011;54051;53.464;49.532;2023-06-14T10:32:24;7.50;;;2.90;;
67130;SDS011;54051;53.464;49.532;2023-06-14T10:37:46;7.55;;;2.75;;
67130;SDS011;54051;53.464;49.532;2023-06-14T10:42:55;6.35;;;2.70;;
67130;SDS011;54051;53.464;49.532;2023-06-14T10:45:21;6.68;;;2.60;;
67130;SDS011;54051;53.464;49.532;2023-06-14T10:47:48;7.47;;;2.97;;
67130;SDS011;54051;53.464;49.532;2023-06-14T10:50:17;6.07;;;2.80;;
67130;SDS011;54051;53.464;49.532;2023-06-14T10:52:54;6.13;;;2.88;;
67130;SDS011;54051;53.464;49.532;2023-06-14T10:55:21;7.78;;;2.70;;
67130;SDS011;54051;53.464;49.532;2023-06-14T10:57:52;7.22;;;2.67;;
67130;SDS011;54051;53.464;49.532;2023-06-14T11:00:27;5.82;;;2.40;;
67130;SDS011;54051;53.464;49.532;2023-06-14T11:05:57;6.90;;;3.00;;
67130;SDS011;54051;53.464;49.532;2023-06-14T11:11:07;5.60;;;3.10;;
67130;SDS011;54051;53.464;49.532;2023-06-14T11:13:34;9.15;;;3.15;;
67130;SDS011;54051;53.464;49.532;2023-06-14T11:16:09;7.18;;;3.10;;
67130;SDS011;54051;53.464;49.532;2023-06-14T11:18:44;8.02;;;3.10;;
67130;SDS011;54051;53.464;49.532;2023-06-14T11:23:36;7.15;;;3.08;;
67130;SDS011;54051;53.464;49.532;2023-06-14T11:26:03;5.85;;;2.92;;
67130;SDS011;54051;53.464;49.532;2023-06-14T11:28:35;6.85;;;3.03;;
67130;SDS011;54051;53.464;49.532;2023-06-14T11:31:03;6.57;;;2.95;;
67130;SDS011;54051;53.464;49.532;2023-06-14T11:33:30;6.95;;;3.20;;
67130;SDS011;54051;53.464;49.532;2023-06-14T11:35:56;9.55;;;3.13;;
67130;SDS011;54051;53.464;49.532;2023-06-14T11:38:22;10.60;;;3.13;;
67130;SDS011;54051;53.464;49.532;2023-06-14T11:40:48;6.63;;;3.22;;
67130;SDS011;54051;53.464;49.532;2023-06-14T11:43:14;10.23;;;3.00;;
67130;SDS011;54051;53.464;49.532;2023-06-14T11:45:40;7.93;;;2.97;;
67130;SDS011;54051;53.464;49.532;2023-06-14T11:48:06;11.35;;;3.00;;
67130;SDS011;54051;53.464;49.532;2023-06-14T11:50:32;6.93;;;3.10;;
67130;SDS011;54051;53.464;49.532;2023-06-14T11:53:04;6.80;;;3.28;;
67130;SDS011;54051;53.464;49.532;2023-06-14T11:55:37;9.20;;;3.08;;
67130;SDS011;54051;53.464;49.532;2023-06-14T11:58:04;6.70;;;2.97;;
67130;SDS011;54051;53.464;49.532;2023-06-14T12:00:30;6.93;;;3.03;;
67130;SDS011;54051;53.464;49.532;2023-06-14T12:02:57;9.15;;;3.00;;
67130;SDS011;54051;53.464;49.532;2023-06-14T12:05:24;6.72;;;2.88;;
67130;SDS011;54051;53.464;49.532;2023-06-14T12:07:57;6.22;;;2.95;;
67130;SDS011;54051;53.464;49.532;2023-06-14T12:10:25;7.07;;;3.20;;
67130;SDS011;54051;53.464;49.532;2023-06-14T12:12:56;6.97;;;3.10;;
67130;SDS011;54051;53.464;49.532;2023-06-14T12:15:24;7.38;;;3.00;;
67130;SDS011;54051;53.464;49.532;2023-06-14T12:17:50;7.20;;;3.10;;
67130;SDS011;54051;53.464;49.532;2023-06-14T12:20:18;7.03;;;2.72;;
67130;SDS011;54051;53.464;49.532;2023-06-14T12:22:53;8.85;;;3.30;;
67130;SDS011;54051;53.464;49.532;2023-06-14T12:25:29;7.45;;;3.20;;
67130;SDS011;54051;53.464;49.532;2023-06-14T12:27:59;7.25;;;3.17;;
67130;SDS011;54051;53.464;49.532;2023-06-14T12:30:29;6.80;;;2.88;;
67130;SDS011;54051;53.464;49.532;2023-06-14T12:32:55;6.70;;;2.90;;
67130;SDS011;54051;53.464;49.532;2023-06-14T12:35:21;5.90;;;2.95;;
67130;SDS011;54051;53.464;49.532;2023-06-14T12:37:47;9.07;;;3.20;;
67130;SDS011;54051;53.464;49.532;2023-06-14T12:40:13;7.30;;;3.08;;
67130;SDS011;54051;53.464;49.532;2023-06-14T12:42:40;5.82;;;3.00;;
67130;SDS011;54051;53.464;49.532;2023-06-14T12:45:07;6.13;;;3.03;;
67130;SDS011;54051;53.464;49.532;2023-06-14T12:47:33;7.55;;;3.17;;
67130;SDS011;54051;53.464;49.532;2023-06-14T12:49:59;5.35;;;3.00;;
67130;SDS011;54051;53.464;49.532;2023-06-14T12:52:25;5.88;;;2.80;;
67130;SDS011;54051;53.464;49.532;2023-06-14T12:54:51;5.53;;;2.75;;
67130;SDS011;54051;53.464;49.532;2023-06-14T12:57:17;6.75;;;3.00;;
67130;SDS011;54051;53.464;49.532;2023-06-14T12:59:43;5.75;;;2.60;;
67130;SDS011;54051;53.464;49.532;2023-06-14T13:02:13;5.65;;;2.90;;
67130;SDS011;54051;53.464;49.532;2023-06-14T13:04:41;6.20;;;2.80;;
67130;SDS011;54051;53.464;49.532;2023-06-14T13:07:07;6.55;;;2.70;;
67130;SDS011;54051;53.464;49.532;2023-06-14T13:09:33;5.85;;;2.97;;
67130;SDS011;54051;53.464;49.532;2023-06-14T13:11:59;6.47;;;2.80;;
67130;SDS011;54051;53.464;49.532;2023-06-14T13:16:51;6.28;;;2.63;;
67130;SDS011;54051;53.464;49.532;2023-06-14T13:19:17;6.60;;;2.50;;
67130;SDS011;54051;53.464;49.532;2023-06-14T13:21:44;5.50;;;2.67;;
67130;SDS011;54051;53.464;49.532;2023-06-14T13:24:09;8.00;;;2.95;;
67130;SDS011;54051;53.464;49.532;2023-06-14T13:26:35;8.93;;;3.13;;
67130;SDS011;54051;53.464;49.532;2023-06-14T13:29:01;7.45;;;3.10;;
67130;SDS011;54051;53.464;49.532;2023-06-14T13:31:28;9.80;;;2.83;;
67130;SDS011;54051;53.464;49.532;2023-06-14T13:33:54;7.72;;;3.33;;
67130;SDS011;54051;53.464;49.532;2023-06-14T13:36:21;7.15;;;3.50;;
67130;SDS011;54051;53.464;49.532;2023-06-14T13:41:13;7.68;;;3.95;;
67130;SDS011;54051;53.464;49.532;2023-06-14T13:43:39;7.60;;;3.50;;
67130;SDS011;54051;53.464;49.532;2023-06-14T13:46:06;9.13;;;3.30;;
67130;SDS011;54051;53.464;49.532;2023-06-14T13:48:32;8.60;;;5.07;;
67130;SDS011;54051;53.464;49.532;2023-06-14T13:50:59;10.63;;;5.47;;
67130;SDS011;54051;53.464;49.532;2023-06-14T13:53:26;13.13;;;7.40;;
67130;SDS011;54051;53.464;49.532;2023-06-14T13:55:52;9.10;;;5.28;;
67130;SDS011;54051;53.464;49.532;2023-06-14T13:58:19;8.93;;;4.75;;
67130;SDS011;54051;53.464;49.532;2023-06-14T14:00:45;7.43;;;3.47;;
67130;SDS011;54051;53.464;49.532;2023-06-14T14:03:11;7.80;;;3.20;;
67130;SDS011;54051;53.464;49.532;2023-06-14T14:05:37;6.78;;;3.38;;
67130;SDS011;54051;53.464;49.532;2023-06-14T14:08:03;10.43;;;5.40;;
67130;SDS011;54051;53.464;49.532;2023-06-14T14:10:29;9.88;;;5.57;;
67130;SDS011;54051;53.464;49.532;2023-06-14T14:12:56;9.30;;;4.80;;
67130;SDS011;54051;53.464;49.532;2023-06-14T14:15:22;12.10;;;5.68;;
67130;SDS011;54051;53.464;49.532;2023-06-14T14:17:48;8.68;;;4.03;;
67130;SDS011;54051;53.464;49.532;2023-06-14T14:20:18;6.88;;;3.30;;
67130;SDS011;54051;53.464;49.532;2023-06-14T14:22:44;6.78;;;3.10;;
67130;SDS011;54051;53.464;49.532;2023-06-14T14:25:11;8.52;;;3.85;;
67130;SDS011;54051;53.464;49.532;2023-06-14T14:27:37;11.32;;;5.57;;
67130;SDS011;54051;53.464;49.532;2023-06-14T14:30:04;9.73;;;5.00;;
67130;SDS011;54051;53.464;49.532;2023-06-14T14:32:31;9.25;;;5.50;;
67130;SDS011;54051;53.464;49.532;2023-06-14T14:34:57;11.90;;;5.70;;
67130;SDS011;54051;53.464;49.532;2023-06-14T14:42:15;24.58;;;14.30;;
67130;SDS011;54051;53.464;49.532;2023-06-14T14:44:42;13.82;;;8.23;;
67130;SDS011;54051;53.464;49.532;2023-06-14T14:47:09;13.30;;;8.35;;
67130;SDS011;54051;53.464;49.532;2023-06-14T14:49:38;14.68;;;8.05;;
67130;SDS011;54051;53.464;49.532;2023-06-14T14:52:04;12.20;;;7.20;;
67130;SDS011;54051;53.464;49.532;2023-06-14T14:54:34;12.38;;;5.53;;
67130;SDS011;54051;53.464;49.532;2023-06-14T14:57:01;8.27;;;5.90;;
67130;SDS011;54051;53.464;49.532;2023-06-14T14:59:32;8.05;;;4.78;;
67130;SDS011;54051;53.464;49.532;2023-06-14T15:01:59;9.75;;;4.60;;
67130;SDS011;54051;53.464;49.532;2023-06-14T15:04:25;9.40;;;4.15;;
67130;SDS011;54051;53.464;49.532;2023-06-14T15:06:51;7.22;;;3.70;;
67130;SDS011;54051;53.464;49.532;2023-06-14T15:09:16;8.77;;;3.55;;
67130;SDS011;54051;53.464;49.532;2023-06-14T15:11:43;8.00;;;3.75;;
67130;SDS011;54051;53.464;49.532;2023-06-14T15:14:10;6.47;;;3.70;;
67130;SDS011;54051;53.464;49.532;2023-06-14T15:16:36;7.90;;;3.90;;
67130;SDS011;54051;53.464;49.532;2023-06-14T15:19:02;9.40;;;4.43;;
67130;SDS011;54051;53.464;49.532;2023-06-14T15:21:28;7.95;;;3.97;;
67130;SDS011;54051;53.464;49.532;2023-06-14T15:23:55;10.13;;;4.43;;
67130;SDS011;54051;53.464;49.532;2023-06-14T15:26:21;7.97;;;4.13;;
67130;SDS011;54051;53.464;49.532;2023-06-14T15:28:49;11.30;;;4.57;;
67130;SDS011;54051;53.464;49.532;2023-06-14T15:31:15;9.93;;;4.68;;
67130;SDS011;54051;53.464;49.532;2023-06-14T15:33:41;8.35;;;3.70;;
67130;SDS011;54051;53.464;49.532;2023-06-14T15:36:07;9.30;;;3.40;;